Terminal Aerodrome Forecast
Issued by NWS

Home | Current Version | Previous Version | Text Only | Print | Product List | Glossary On
Versions: 1 2 3 4 5 6 7 8 9 10 11 12 13 14 15 16
000
FTUS43 KBIS 222335
TAFJMS
TAF
KJMS 222335Z 2300/2324 24013G21KT P6SM BKN070 WS020/26035KT
     FM230800 28014KT P6SM BKN130 WS020/30040KT
     FM231300 33023G32KT P6SM BKN080 WS020/32040KT
     FM231700 32025G35KT P6SM SCT080
     FM232100 32024G34KT P6SM SCT080=

USA.gov is the U.S. government's official web portal to all federal, state and local government web resources and services.